This is the latest recevied weather packets stored in our database for station/object LRSV. If no packets are shown the sender has not sent any weather packets the latest 10 day(s).
| Time | Temp. | Humidity | Pressure | Rain* | Wind** | Luminosity | Snow |
|---|---|---|---|---|---|---|---|
| 1777825100 | 17.22° C | 39% | 1018 hPa | - | - | - | - |
| 1777821500 | 17.22° C | 34% | 1019 hPa | - | - | - | - |
| 1777808901 | 16.11° C | 36% | 1021 hPa | - | - | - | - |
| 1777807100 | 15° C | 34% | 1021 hPa | - | - | - | - |
| 1777802600 | 13.89° C | 33% | 1022 hPa | - | - | - | - |
| 1777800801 | 13.89° C | 36% | 1022 hPa | - | - | - | - |
| 1777799901 | 12.78° C | 38% | 1022 hPa | - | - | - | - |
| 1777799021 | 12.78° C | 38% | 1022 hPa | - | - | - | - |
| 1777798101 | 12.78° C | 38% | 1022 hPa | - | - | - | - |
| 1777797200 | 12.78° C | 38% | 1022 hPa | - | - | - | - |
| 1777796301 | 12.78° C | 38% | 1022 hPa | - | - | - | - |
| 1777795411 | 12.78° C | 38% | 1022 hPa | - | - | - | - |
| 1777794500 | 12.22° C | 41% | 1023 hPa | - | - | - | - |
| 1777793600 | 12.22° C | 41% | 1023 hPa | - | - | - | - |
| 1777792699 | 10° C | 54% | 1022 hPa | - | - | - | - |
| 1777791801 | 10° C | 54% | 1022 hPa | - | - | - | - |
| 1777790901 | 8.89° C | 62% | 1022 hPa | - | - | - | - |
| 1777790037 | 8.89° C | 62% | 1022 hPa | - | - | - | - |
| 1777789101 | 7.78° C | 66% | 1022 hPa | - | - | - | - |
| 1777788200 | 7.78° C | 66% | 1022 hPa | - | - | - | - |
| 1777787300 | 7.22° C | 71% | 1022 hPa | - | - | - | - |
| 1777786400 | 7.22° C | 71% | 1022 hPa | - | - | - | - |
| 1777785500 | 6.11° C | 76% | 1022 hPa | - | - | - | - |
| 1777784600 | 6.11° C | 76% | 1022 hPa | - | - | - | - |
| 1777783700 | 5° C | 76% | 1022 hPa | - | - | - | - |
* Rain since midnight (hover to see other rain measurements)
** Current wind speed in m/s (hover to see current wind gust speed)